createdAt,value
2022-11-24T00:01:02.124Z,4.93
2022-11-24T00:03:29.654Z,4.80
2022-11-24T00:05:56.436Z,5.32
2022-11-24T00:08:23.185Z,5.03
2022-11-24T00:10:49.944Z,4.07
2022-11-24T00:13:16.673Z,6.10
2022-11-24T00:15:43.461Z,5.85
2022-11-24T00:18:10.240Z,4.45
2022-11-24T00:20:37.064Z,4.80
2022-11-24T00:23:04.000Z,4.50
2022-11-24T00:25:30.742Z,3.75
2022-11-24T00:27:57.575Z,4.70
2022-11-24T00:30:24.396Z,4.35
2022-11-24T00:32:53.003Z,6.28
2022-11-24T00:35:19.762Z,5.65
2022-11-24T00:37:46.482Z,5.78
2022-11-24T00:40:13.307Z,10.90
2022-11-24T00:42:40.046Z,5.20
2022-11-24T00:45:13.976Z,5.10
2022-11-24T00:47:41.201Z,4.90
2022-11-24T00:50:08.506Z,6.03
2022-11-24T00:52:35.252Z,4.20
2022-11-24T00:55:02.017Z,6.57
2022-11-24T00:57:28.742Z,5.30
2022-11-24T00:59:55.489Z,6.82
2022-11-24T01:02:22.323Z,5.90
2022-11-24T01:04:49.154Z,6.63
2022-11-24T01:07:15.974Z,5.55
2022-11-24T01:09:45.520Z,4.55
2022-11-24T01:12:12.299Z,4.93
2022-11-24T01:14:39.243Z,4.95
2022-11-24T01:17:06.085Z,8.05
2022-11-24T01:19:33.098Z,11.13
2022-11-24T01:21:59.882Z,6.82
2022-11-24T01:24:26.606Z,7.45
2022-11-24T01:26:53.373Z,7.65
2022-11-24T01:29:20.270Z,5.43
2022-11-24T01:31:47.101Z,7.20
2022-11-24T01:34:13.871Z,7.30
2022-11-24T01:36:40.655Z,6.32
2022-11-24T01:39:07.962Z,7.50
2022-11-24T01:41:35.677Z,9.88
2022-11-24T01:44:27.919Z,6.97
2022-11-24T01:47:33.340Z,5.53
2022-11-24T01:50:03.082Z,6.13
2022-11-24T01:52:40.214Z,6.55
2022-11-24T01:55:12.606Z,6.43
2022-11-24T02:00:14.066Z,6.80
2022-11-24T02:02:43.282Z,6.30
2022-11-24T02:05:21.520Z,6.13
2022-11-24T02:07:49.256Z,4.38
2022-11-24T02:10:16.631Z,4.13
2022-11-24T02:12:46.989Z,5.90
2022-11-24T02:15:15.388Z,7.90
2022-11-24T02:17:42.149Z,4.60
2022-11-24T02:20:10.714Z,3.95
2022-11-24T02:23:14.342Z,3.97
2022-11-24T02:25:56.248Z,5.93
2022-11-24T02:28:26.483Z,7.00
2022-11-24T02:30:53.509Z,5.07
2022-11-24T02:33:21.805Z,4.43
2022-11-24T02:35:48.596Z,4.65
2022-11-24T02:38:15.438Z,5.90
2022-11-24T02:40:46.827Z,9.60
2022-11-24T02:43:21.865Z,7.60
2022-11-24T02:45:48.873Z,8.82
2022-11-24T02:48:16.490Z,6.78
2022-11-24T02:50:43.397Z,6.20
2022-11-24T02:53:10.179Z,6.50
2022-11-24T02:55:37.047Z,6.45
2022-11-24T02:58:03.807Z,6.63
2022-11-24T03:00:30.743Z,4.72
2022-11-24T03:02:57.869Z,4.35
2022-11-24T03:05:24.733Z,5.55
2022-11-24T03:07:51.558Z,6.90
2022-11-24T03:10:18.480Z,5.70
2022-11-24T03:12:45.232Z,5.28
2022-11-24T03:15:12.044Z,9.27
2022-11-24T03:17:38.899Z,12.95
2022-11-24T03:20:06.123Z,16.45
2022-11-24T03:22:32.971Z,12.50
2022-11-24T03:24:59.792Z,12.38
2022-11-24T03:27:26.759Z,7.93
2022-11-24T03:29:53.509Z,12.88
2022-11-24T03:32:20.335Z,8.88
2022-11-24T03:34:47.340Z,12.45
2022-11-24T03:37:14.266Z,10.88
2022-11-24T03:39:41.095Z,6.88
2022-11-24T03:42:07.859Z,14.68
2022-11-24T03:44:34.827Z,10.20
2022-11-24T03:47:01.735Z,11.45
2022-11-24T03:49:28.546Z,8.50
2022-11-24T03:51:55.353Z,4.47
2022-11-24T03:54:22.186Z,6.78
2022-11-24T03:56:48.909Z,6.68
2022-11-24T03:59:15.685Z,8.27
2022-11-24T04:01:42.551Z,8.43
2022-11-24T04:04:11.581Z,7.57
2022-11-24T04:06:38.874Z,8.32
2022-11-24T04:09:05.829Z,5.45
2022-11-24T04:11:51.048Z,6.80
2022-11-24T04:14:19.372Z,7.68
2022-11-24T04:16:46.252Z,5.30
2022-11-24T04:19:13.106Z,6.47
2022-11-24T04:21:39.981Z,7.55
2022-11-24T04:24:07.170Z,4.40
2022-11-24T04:26:33.973Z,4.50
2022-11-24T04:29:00.748Z,3.90
2022-11-24T04:31:27.559Z,4.50
2022-11-24T04:33:54.404Z,6.65
2022-11-24T04:36:21.160Z,3.17
2022-11-24T04:39:24.478Z,5.18
2022-11-24T04:41:34.796Z,5.65
2022-11-24T04:44:01.615Z,7.05
2022-11-24T04:46:28.397Z,5.45
2022-11-24T04:48:55.206Z,5.88
2022-11-24T04:51:22.203Z,5.07
2022-11-24T04:53:49.530Z,6.03
2022-11-24T04:56:16.379Z,5.70
2022-11-24T04:58:43.285Z,5.85
2022-11-24T05:01:10.160Z,7.65
2022-11-24T05:03:37.028Z,4.85
2022-11-24T05:06:04.337Z,13.55
2022-11-24T05:08:31.095Z,4.88
2022-11-24T05:10:58.216Z,7.15
2022-11-24T05:13:25.037Z,8.57
2022-11-24T05:15:52.050Z,6.53
2022-11-24T05:18:18.956Z,6.20
2022-11-24T05:20:45.867Z,10.52
2022-11-24T05:23:12.935Z,9.95
2022-11-24T05:25:44.878Z,7.97
2022-11-24T05:28:14.214Z,10.25
2022-11-24T05:30:41.555Z,8.57
2022-11-24T05:33:12.280Z,13.23
2022-11-24T05:35:39.043Z,9.75
2022-11-24T05:38:05.874Z,7.22
2022-11-24T05:40:33.952Z,8.90
2022-11-24T05:43:00.790Z,8.23
2022-11-24T05:45:27.722Z,9.25
2022-11-24T05:47:54.538Z,12.02
2022-11-24T05:50:22.835Z,11.18
2022-11-24T05:52:50.444Z,9.80
2022-11-24T05:55:19.465Z,8.82
2022-11-24T05:57:46.484Z,9.88
2022-11-24T06:00:14.134Z,10.02
2022-11-24T06:02:41.403Z,14.85
2022-11-24T06:05:09.111Z,10.20
2022-11-24T06:07:36.174Z,14.13
2022-11-24T06:10:03.772Z,21.05
2022-11-24T06:12:30.688Z,12.95
2022-11-24T06:14:57.491Z,15.82
2022-11-24T06:17:24.372Z,10.38
2022-11-24T06:19:51.798Z,10.30
2022-11-24T06:22:19.397Z,11.20
2022-11-24T06:24:46.688Z,14.60
2022-11-24T06:27:14.271Z,12.70
2022-11-24T06:29:41.165Z,11.50
2022-11-24T06:32:08.355Z,14.57
2022-11-24T06:34:35.685Z,17.05
2022-11-24T06:37:02.745Z,14.60
2022-11-24T06:39:29.564Z,17.95
2022-11-24T06:41:56.474Z,14.68
2022-11-24T06:44:23.917Z,14.05
2022-11-24T06:46:50.941Z,13.68
2022-11-24T06:49:19.029Z,12.75
2022-11-24T06:51:45.902Z,14.27
2022-11-24T06:54:17.462Z,16.23
2022-11-24T06:56:44.546Z,13.82
2022-11-24T06:59:18.510Z,13.77
2022-11-24T07:01:46.888Z,14.35
2022-11-24T07:04:13.796Z,16.45
2022-11-24T07:06:41.489Z,23.30
2022-11-24T07:09:11.356Z,14.27
2022-11-24T07:11:38.748Z,19.95
2022-11-24T07:14:06.667Z,17.67
2022-11-24T07:16:34.295Z,16.80
2022-11-24T07:19:01.321Z,19.67
2022-11-24T07:21:29.483Z,22.42
2022-11-24T07:23:58.725Z,19.10
2022-11-24T07:26:27.746Z,19.70
2022-11-24T07:28:54.866Z,26.27
2022-11-24T07:31:25.293Z,23.17
2022-11-24T07:33:55.143Z,22.05
2022-11-24T07:36:23.032Z,18.85
2022-11-24T07:38:50.042Z,18.95
2022-11-24T07:41:19.818Z,19.88
2022-11-24T07:43:56.353Z,20.33
2022-11-24T07:49:06.745Z,15.55
2022-11-24T07:51:34.245Z,18.20
2022-11-24T07:54:01.149Z,21.15
2022-11-24T07:56:30.592Z,23.08
2022-11-24T07:58:57.383Z,25.70
2022-11-24T08:01:24.426Z,27.83
2022-11-24T08:03:51.299Z,22.75
2022-11-24T08:06:30.027Z,22.77
2022-11-24T08:09:03.435Z,27.75
2022-11-24T08:11:31.725Z,37.35
2022-11-24T08:13:58.853Z,23.77
2022-11-24T08:16:25.760Z,27.90
2022-11-24T08:18:55.026Z,24.42
2022-11-24T08:21:23.687Z,24.40
2022-11-24T08:23:54.083Z,24.88
2022-11-24T08:26:20.979Z,26.17
2022-11-24T08:28:48.164Z,27.17
2022-11-24T08:31:21.418Z,28.35
2022-11-24T08:33:51.330Z,24.13
2022-11-24T08:36:19.590Z,37.45
2022-11-24T08:38:46.992Z,26.27
2022-11-24T08:41:16.343Z,25.02
2022-11-24T08:43:43.550Z,28.08
2022-11-24T08:46:13.243Z,25.30
2022-11-24T08:48:40.237Z,23.90
2022-11-24T08:51:09.288Z,25.00
2022-11-24T08:53:36.806Z,22.45
2022-11-24T08:56:05.053Z,23.25
2022-11-24T08:58:38.860Z,26.23
2022-11-24T09:01:17.710Z,26.60
2022-11-24T09:03:50.728Z,26.50
2022-11-24T09:06:20.011Z,26.20
2022-11-24T09:08:46.762Z,28.65
2022-11-24T09:11:15.382Z,25.45
2022-11-24T09:13:42.906Z,26.80
2022-11-24T09:16:20.982Z,26.45
2022-11-24T09:18:48.474Z,25.50
2022-11-24T09:21:17.357Z,26.45
2022-11-24T09:23:46.430Z,31.05
2022-11-24T09:26:16.868Z,27.00
2022-11-24T09:28:44.621Z,27.13
2022-11-24T09:31:13.710Z,27.42
2022-11-24T09:33:42.034Z,29.48
2022-11-24T09:36:09.146Z,28.40
2022-11-24T09:38:36.624Z,33.03
2022-11-24T09:41:26.582Z,29.42
2022-11-24T09:44:14.861Z,27.88
2022-11-24T09:46:53.981Z,28.13
2022-11-24T09:49:49.836Z,29.05
2022-11-24T09:52:26.167Z,32.97
2022-11-24T09:55:01.044Z,33.15
2022-11-24T09:57:35.825Z,31.88
2022-11-24T10:00:15.799Z,31.92
2022-11-24T10:02:43.949Z,27.63
2022-11-24T10:05:12.983Z,29.33
2022-11-24T10:08:12.993Z,27.73
2022-11-24T10:11:01.382Z,29.00
2022-11-24T10:13:50.580Z,34.53
2022-11-24T10:16:17.477Z,34.65
2022-11-24T10:19:13.074Z,31.08
2022-11-24T10:21:51.620Z,32.70
2022-11-24T10:24:21.250Z,35.47
2022-11-24T10:27:03.996Z,32.83
2022-11-24T10:29:30.766Z,34.45
2022-11-24T10:31:58.249Z,33.50
2022-11-24T10:34:45.579Z,29.83
2022-11-24T10:37:23.797Z,32.25
2022-11-24T10:39:59.659Z,34.65
2022-11-24T10:42:29.220Z,37.95
2022-11-24T10:45:14.338Z,34.85
2022-11-24T10:47:42.336Z,36.53
2022-11-24T10:50:33.433Z,33.88
2022-11-24T10:53:09.077Z,35.13
2022-11-24T10:55:57.672Z,35.50
2022-11-24T10:58:36.004Z,33.15
2022-11-24T11:01:13.928Z,32.15
2022-11-24T11:03:47.664Z,29.75
2022-11-24T11:06:32.918Z,32.03
2022-11-24T11:09:08.845Z,34.08
2022-11-24T11:11:39.273Z,38.60
2022-11-24T11:14:10.071Z,28.52
2022-11-24T11:17:02.922Z,31.13
2022-11-24T11:19:49.523Z,30.40
2022-11-24T11:22:31.098Z,32.80
2022-11-24T11:25:16.944Z,31.50
2022-11-24T11:27:43.891Z,32.00
2022-11-24T11:36:14.747Z,31.52
2022-11-24T11:38:43.551Z,32.17
2022-11-24T11:41:19.337Z,33.55
2022-11-24T11:43:54.836Z,32.33
2022-11-24T11:46:21.726Z,29.63
2022-11-24T11:48:48.742Z,35.05
2022-11-24T11:51:52.791Z,30.55
2022-11-24T11:54:25.599Z,33.53
2022-11-24T11:57:09.057Z,29.27
2022-11-24T11:59:41.634Z,31.98
2022-11-24T12:02:23.597Z,31.65
2022-11-24T12:04:57.971Z,30.40
2022-11-24T12:07:52.158Z,31.83
2022-11-24T12:10:37.479Z,31.02
2022-11-24T12:13:35.359Z,31.48
2022-11-24T12:16:27.870Z,31.60
2022-11-24T12:21:42.246Z,37.30
2022-11-24T12:24:23.350Z,37.72
2022-11-24T12:26:54.906Z,35.22
2022-11-24T12:29:40.738Z,30.05
2022-11-24T12:32:30.568Z,26.35
2022-11-24T12:35:06.256Z,32.20
2022-11-24T12:37:33.171Z,30.70
2022-11-24T12:40:46.388Z,35.97
2022-11-24T12:43:33.806Z,31.10
2022-11-24T12:46:35.574Z,31.85
2022-11-24T12:49:17.835Z,35.50
2022-11-24T12:51:51.306Z,33.83
2022-11-24T12:54:20.555Z,30.98
2022-11-24T12:57:00.945Z,35.72
2022-11-24T12:59:53.656Z,31.88
2022-11-24T13:02:55.145Z,35.50
2022-11-24T13:05:32.931Z,34.22
2022-11-24T13:08:03.906Z,33.63
2022-11-24T13:10:56.314Z,39.47
2022-11-24T13:13:29.905Z,34.88
2022-11-24T13:16:20.669Z,32.53
2022-11-24T13:18:59.467Z,32.95
2022-11-24T13:21:36.651Z,28.50
2022-11-24T13:24:06.475Z,31.80
2022-11-24T13:26:42.301Z,30.17
2022-11-24T13:29:30.897Z,54.50
2022-11-24T13:32:06.890Z,35.30
2022-11-24T13:34:39.968Z,34.58
2022-11-24T13:37:26.625Z,34.63
2022-11-24T13:40:13.184Z,38.05
2022-11-24T13:42:56.440Z,36.50
2022-11-24T13:45:41.913Z,38.33
2022-11-24T13:48:21.928Z,37.60
2022-11-24T13:50:56.118Z,34.75
2022-11-24T13:53:28.809Z,35.90
2022-11-24T13:56:14.023Z,32.10
2022-11-24T13:58:43.743Z,30.95
2022-11-24T14:01:13.838Z,32.80
2022-11-24T14:04:07.217Z,35.88
2022-11-24T14:06:39.540Z,30.08
2022-11-24T14:09:25.153Z,35.60
2022-11-24T14:12:08.177Z,33.83
2022-11-24T14:14:35.425Z,29.05
2022-11-24T14:17:16.914Z,32.42
2022-11-24T14:19:46.366Z,34.50
2022-11-24T14:22:40.594Z,28.55
2022-11-24T14:25:19.877Z,31.23
2022-11-24T14:27:46.775Z,30.08
2022-11-24T14:30:13.821Z,31.98
2022-11-24T14:32:42.242Z,30.80
2022-11-24T14:35:27.703Z,33.92
2022-11-24T14:37:54.752Z,32.70
2022-11-24T14:40:42.217Z,31.40
2022-11-24T14:43:35.445Z,30.52
2022-11-24T14:46:17.732Z,34.65
2022-11-24T14:51:23.219Z,34.30
2022-11-24T14:53:58.520Z,35.13
2022-11-24T14:56:25.352Z,37.67
2022-11-24T14:58:53.429Z,40.67
2022-11-24T15:01:30.113Z,46.50
2022-11-24T15:04:54.522Z,43.75
2022-11-24T15:07:21.950Z,38.38
2022-11-24T15:09:48.841Z,35.83
2022-11-24T15:12:39.274Z,45.78
2022-11-24T15:15:20.583Z,45.60
2022-11-24T15:18:01.230Z,46.28
2022-11-24T15:21:11.788Z,40.35
2022-11-24T15:23:43.408Z,51.20
2022-11-24T15:26:13.323Z,46.80
2022-11-24T15:28:40.263Z,46.38
2022-11-24T15:31:11.586Z,47.13
2022-11-24T15:33:39.465Z,44.07
2022-11-24T15:36:14.265Z,50.33
2022-11-24T15:38:41.261Z,47.60
2022-11-24T15:41:21.648Z,43.58
2022-11-24T15:43:49.560Z,46.95
2022-11-24T15:46:17.374Z,57.63
2022-11-24T15:48:45.289Z,51.28
2022-11-24T15:51:19.301Z,54.97
2022-11-24T15:54:00.248Z,49.55
2022-11-24T15:56:34.099Z,48.40
2022-11-24T15:59:02.464Z,50.25
2022-11-24T16:01:32.931Z,46.65
2022-11-24T16:04:00.992Z,44.25
2022-11-24T16:06:27.798Z,48.83
2022-11-24T16:08:54.947Z,50.35
2022-11-24T16:11:22.728Z,52.17
2022-11-24T16:13:53.946Z,46.67
2022-11-24T16:16:25.356Z,53.80
2022-11-24T16:18:54.168Z,50.45
2022-11-24T16:21:25.029Z,50.95
2022-11-24T16:26:35.644Z,48.85
2022-11-24T16:29:03.016Z,52.17
2022-11-24T16:31:31.442Z,45.63
2022-11-24T16:34:00.367Z,45.92
2022-11-24T16:36:29.425Z,49.30
2022-11-24T16:39:13.880Z,44.15
2022-11-24T16:41:41.235Z,44.58
2022-11-24T16:44:20.898Z,45.85
2022-11-24T16:46:48.469Z,47.03
2022-11-24T16:49:15.412Z,44.60
2022-11-24T16:51:47.116Z,39.75
2022-11-24T16:54:13.966Z,40.65
2022-11-24T16:56:40.905Z,51.80
2022-11-24T16:59:07.921Z,48.78
2022-11-24T17:01:35.875Z,52.42
2022-11-24T17:04:09.581Z,46.15
2022-11-24T17:06:39.711Z,46.50
2022-11-24T17:09:06.918Z,41.63
2022-11-24T17:11:38.101Z,45.15
2022-11-24T17:14:04.910Z,43.83
2022-11-24T17:16:36.805Z,47.30
2022-11-24T17:19:07.968Z,50.15
2022-11-24T17:21:34.803Z,50.38
2022-11-24T17:24:06.794Z,41.70
2022-11-24T17:26:33.741Z,47.30
2022-11-24T17:29:00.638Z,37.97
2022-11-24T17:31:32.391Z,38.60
2022-11-24T17:34:01.166Z,37.33
2022-11-24T17:36:29.411Z,30.75
2022-11-24T17:38:58.063Z,32.60
2022-11-24T17:41:24.918Z,39.30
2022-11-24T17:43:55.892Z,33.03
2022-11-24T17:46:24.148Z,28.55
2022-11-24T17:48:51.249Z,30.08
2022-11-24T17:51:20.707Z,29.50
2022-11-24T17:53:50.361Z,26.15
2022-11-24T17:56:19.998Z,33.65
2022-11-24T17:58:47.343Z,28.73
2022-11-24T18:01:14.707Z,33.15
2022-11-24T18:03:42.336Z,43.65
2022-11-24T18:06:13.301Z,60.97
2022-11-24T18:08:42.651Z,34.22
2022-11-24T18:11:13.772Z,27.95
2022-11-24T18:13:56.615Z,22.85
2022-11-24T18:16:28.213Z,28.02
2022-11-24T18:19:07.919Z,23.60
2022-11-24T18:21:37.391Z,21.58
2022-11-24T18:24:04.417Z,39.28
2022-11-24T18:26:33.123Z,38.80
2022-11-24T18:29:01.045Z,30.20
2022-11-24T18:31:32.038Z,24.95
2022-11-24T18:34:00.013Z,26.42
2022-11-24T18:36:30.605Z,24.85
2022-11-24T18:39:04.253Z,27.48
2022-11-24T18:41:32.068Z,27.60
2022-11-24T18:44:02.580Z,22.58
2022-11-24T18:46:29.563Z,23.85
2022-11-24T18:48:56.451Z,26.58
2022-11-24T18:51:23.869Z,30.67
2022-11-24T18:53:58.242Z,28.13
2022-11-24T18:56:26.008Z,24.90
2022-11-24T18:58:53.782Z,27.27
2022-11-24T19:01:24.142Z,30.52
2022-11-24T19:03:54.819Z,28.95
2022-11-24T19:06:39.813Z,34.72
2022-11-24T19:09:26.062Z,26.73
2022-11-24T19:11:52.943Z,29.55
2022-11-24T19:14:19.857Z,26.05
2022-11-24T19:16:48.398Z,32.22
2022-11-24T19:19:16.956Z,32.15
2022-11-24T19:21:44.074Z,28.98
2022-11-24T19:24:13.158Z,30.38
2022-11-24T19:26:40.390Z,27.85
2022-11-24T19:29:07.722Z,28.35
2022-11-24T19:31:35.975Z,26.33
2022-11-24T19:34:03.495Z,23.67
2022-11-24T19:36:30.471Z,23.00
2022-11-24T19:38:58.468Z,23.58
2022-11-24T19:41:30.207Z,26.98
2022-11-24T19:43:58.779Z,23.13
2022-11-24T19:46:29.703Z,25.17
2022-11-24T19:48:59.230Z,23.85
2022-11-24T19:51:30.678Z,24.90
2022-11-24T19:53:58.214Z,23.57
2022-11-24T19:56:29.383Z,25.90
2022-11-24T19:58:56.823Z,28.70
2022-11-24T20:01:32.766Z,23.20
2022-11-24T20:04:06.929Z,24.65
2022-11-24T20:06:36.788Z,29.20
2022-11-24T20:09:06.742Z,33.03
2022-11-24T20:11:33.740Z,27.67
2022-11-24T20:14:00.842Z,26.90
2022-11-24T20:16:32.413Z,32.33
2022-11-24T20:19:08.691Z,30.27
2022-11-24T20:21:38.168Z,25.45
2022-11-24T20:24:08.119Z,30.88
2022-11-24T20:26:38.204Z,28.40
2022-11-24T20:29:06.816Z,28.98
2022-11-24T20:31:39.509Z,27.33
2022-11-24T20:34:07.833Z,26.52
2022-11-24T20:36:37.961Z,28.08
2022-11-24T20:39:07.914Z,29.13
2022-11-24T20:41:38.746Z,30.77
2022-11-24T20:44:09.049Z,32.33
2022-11-24T20:46:37.849Z,29.73
2022-11-24T20:49:06.854Z,31.13
2022-11-24T20:51:37.918Z,31.52
2022-11-24T20:54:08.706Z,31.90
2022-11-24T20:56:39.990Z,27.17
2022-11-24T20:59:12.644Z,26.45
2022-11-24T21:01:45.673Z,23.63
2022-11-24T21:04:21.105Z,27.35
2022-11-24T21:09:30.872Z,29.02
2022-11-24T21:11:59.004Z,25.63
2022-11-24T21:14:27.426Z,25.45
2022-11-24T21:16:59.103Z,28.33
2022-11-24T21:19:26.028Z,26.83
2022-11-24T21:24:36.672Z,27.50
2022-11-24T21:27:05.888Z,32.83
2022-11-24T21:29:32.725Z,34.60
2022-11-24T21:32:00.894Z,33.33
2022-11-24T21:34:28.887Z,37.88
2022-11-24T21:36:58.441Z,43.00
2022-11-24T21:39:25.406Z,39.35
2022-11-24T21:41:52.403Z,34.13
2022-11-24T21:44:20.713Z,33.53
2022-11-24T21:46:54.308Z,34.33
2022-11-24T21:49:22.728Z,39.65
2022-11-24T21:51:55.382Z,36.67
2022-11-24T21:54:22.611Z,30.25
2022-11-24T21:56:49.408Z,24.90
2022-11-24T21:59:16.550Z,26.02
2022-11-24T22:01:43.732Z,26.55
2022-11-24T22:04:11.749Z,34.40
2022-11-24T22:06:40.121Z,28.27
2022-11-24T22:09:07.004Z,26.85
2022-11-24T22:11:34.044Z,27.23
2022-11-24T22:14:00.922Z,25.33
2022-11-24T22:16:28.164Z,29.98
2022-11-24T22:18:56.332Z,27.05
2022-11-24T22:21:25.745Z,30.58
2022-11-24T22:23:53.085Z,31.83
2022-11-24T22:26:22.098Z,28.48
2022-11-24T22:28:49.280Z,27.38
2022-11-24T22:34:06.375Z,27.38
2022-11-24T22:36:33.626Z,31.83
2022-11-24T22:39:03.314Z,27.50
2022-11-24T22:41:32.248Z,20.90
2022-11-24T22:43:59.051Z,28.08
2022-11-24T22:46:29.317Z,26.42
2022-11-24T22:48:59.658Z,24.95
2022-11-24T22:51:32.532Z,31.38
2022-11-24T22:54:02.050Z,28.15
2022-11-24T22:56:32.138Z,30.98
2022-11-24T22:58:59.671Z,36.92
2022-11-24T23:01:28.232Z,29.60
2022-11-24T23:03:55.360Z,29.63
2022-11-24T23:06:30.393Z,32.28
2022-11-24T23:08:58.850Z,34.45
2022-11-24T23:11:36.558Z,36.50
2022-11-24T23:14:06.423Z,32.58
2022-11-24T23:16:33.637Z,35.50
2022-11-24T23:19:00.785Z,32.28
2022-11-24T23:21:30.562Z,32.92
2022-11-24T23:24:00.159Z,31.50
2022-11-24T23:26:29.584Z,30.38
2022-11-24T23:28:56.611Z,30.08
2022-11-24T23:31:28.966Z,28.23
2022-11-24T23:33:57.520Z,27.50
2022-11-24T23:36:24.434Z,21.05
2022-11-24T23:38:51.949Z,21.52
2022-11-24T23:41:22.100Z,20.83
2022-11-24T23:43:49.119Z,16.35
2022-11-24T23:46:20.489Z,16.65
2022-11-24T23:48:48.309Z,14.65
2022-11-24T23:51:20.243Z,10.23
2022-11-24T23:53:47.403Z,10.82
2022-11-24T23:56:17.151Z,9.90
2022-11-24T23:58:44.103Z,9.65
